createdAt,value
2023-05-02T00:02:23.941Z,100.00
2023-05-02T00:04:51.719Z,100.00
2023-05-02T00:07:20.543Z,100.00
2023-05-02T00:09:47.984Z,100.00
2023-05-02T00:12:16.249Z,100.00
2023-05-02T00:14:43.726Z,100.00
2023-05-02T00:17:20.751Z,100.00
2023-05-02T00:19:48.158Z,100.00
2023-05-02T00:22:15.538Z,100.00
2023-05-02T00:24:43.426Z,100.00
2023-05-02T00:27:11.187Z,100.00
2023-05-02T00:29:39.135Z,100.00
2023-05-02T00:32:07.079Z,100.00
2023-05-02T00:34:35.097Z,100.00
2023-05-02T00:37:02.417Z,100.00
2023-05-02T00:39:29.521Z,100.00
2023-05-02T00:41:58.727Z,100.00
2023-05-02T00:44:26.035Z,100.00
2023-05-02T00:46:54.780Z,100.00
2023-05-02T00:49:22.882Z,100.00
2023-05-02T00:51:50.746Z,100.00
2023-05-02T00:54:18.760Z,100.00
2023-05-02T00:56:47.096Z,100.00
2023-05-02T00:59:16.950Z,100.00
2023-05-02T01:02:32.601Z,100.00
2023-05-02T01:05:14.106Z,100.00
2023-05-02T01:08:35.832Z,100.00
2023-05-02T01:11:16.004Z,100.00
2023-05-02T01:13:45.609Z,100.00
2023-05-02T01:16:16.598Z,100.00
2023-05-02T01:18:47.085Z,100.00
2023-05-02T01:21:41.734Z,100.00
2023-05-02T01:24:30.743Z,100.00
2023-05-02T01:27:16.235Z,100.00
2023-05-02T01:29:46.346Z,100.00
2023-05-02T01:32:17.245Z,100.00
2023-05-02T01:34:47.528Z,100.00
2023-05-02T01:37:18.460Z,100.00
2023-05-02T01:39:49.822Z,100.00
2023-05-02T01:42:18.719Z,100.00
2023-05-02T01:44:49.135Z,100.00
2023-05-02T01:47:20.099Z,100.00
2023-05-02T01:49:49.130Z,100.00
2023-05-02T01:52:20.722Z,100.00
2023-05-02T01:54:52.784Z,100.00
2023-05-02T01:57:20.402Z,100.00
2023-05-02T01:59:50.399Z,100.00
2023-05-02T02:02:19.786Z,100.00
2023-05-02T02:04:50.869Z,100.00
2023-05-02T02:07:18.235Z,100.00
2023-05-02T02:09:46.086Z,100.00
2023-05-02T02:12:29.194Z,100.00
2023-05-02T02:15:12.951Z,100.00
2023-05-02T02:17:49.562Z,100.00
2023-05-02T02:20:18.869Z,100.00
2023-05-02T02:22:47.924Z,100.00
2023-05-02T02:25:17.943Z,100.00
2023-05-02T02:27:45.080Z,100.00
2023-05-02T02:30:12.712Z,100.00
2023-05-02T02:32:40.147Z,100.00
2023-05-02T02:35:08.820Z,100.00
2023-05-02T02:37:47.410Z,100.00
2023-05-02T02:40:43.381Z,100.00
2023-05-02T02:43:38.962Z,100.00
2023-05-02T02:46:35.221Z,100.00
2023-05-02T02:49:36.338Z,100.00
2023-05-02T02:52:33.898Z,100.00
2023-05-02T02:55:13.370Z,100.00
2023-05-02T02:57:58.154Z,100.00
2023-05-02T03:00:30.511Z,100.00
2023-05-02T03:02:58.333Z,100.00
2023-05-02T03:05:26.090Z,100.00
2023-05-02T03:07:59.661Z,100.00
2023-05-02T03:10:27.638Z,100.00
2023-05-02T03:12:55.615Z,100.00
2023-05-02T03:15:53.275Z,100.00
2023-05-02T03:18:27.536Z,100.00
2023-05-02T03:20:55.113Z,100.00
2023-05-02T03:23:23.098Z,100.00
2023-05-02T03:25:52.967Z,100.00
2023-05-02T03:28:23.957Z,100.00
2023-05-02T03:30:57.930Z,100.00
2023-05-02T03:33:25.527Z,100.00
2023-05-02T03:35:52.684Z,100.00
2023-05-02T03:38:20.526Z,100.00
2023-05-02T03:40:49.957Z,100.00
2023-05-02T03:43:17.152Z,100.00
2023-05-02T03:45:47.039Z,100.00
2023-05-02T03:48:16.729Z,100.00
2023-05-02T03:50:43.850Z,100.00
2023-05-02T03:53:11.771Z,100.00
2023-05-02T03:55:48.105Z,100.00
2023-05-02T03:58:25.284Z,100.00
2023-05-02T04:00:53.696Z,100.00
2023-05-02T04:03:22.825Z,100.00
2023-05-02T04:05:51.555Z,100.00
2023-05-02T04:08:20.384Z,100.00
2023-05-02T04:10:47.879Z,100.00
2023-05-02T04:13:15.207Z,100.00
2023-05-02T04:15:46.661Z,100.00
2023-05-02T04:18:17.424Z,100.00
2023-05-02T04:20:45.400Z,100.00
2023-05-02T04:23:17.720Z,100.00
2023-05-02T04:25:56.670Z,100.00
2023-05-02T04:28:32.468Z,100.00
2023-05-02T04:31:03.688Z,100.00
2023-05-02T04:33:32.481Z,100.00
2023-05-02T04:36:00.636Z,100.00
2023-05-02T04:38:27.885Z,100.00
2023-05-02T04:40:55.533Z,100.00
2023-05-02T04:43:30.909Z,100.00
2023-05-02T04:46:01.716Z,100.00
2023-05-02T04:48:33.612Z,100.00
2023-05-02T04:51:00.859Z,100.00
2023-05-02T04:53:30.406Z,100.00
2023-05-02T04:55:57.993Z,100.00
2023-05-02T04:58:25.581Z,100.00
2023-05-02T05:00:59.010Z,100.00
2023-05-02T05:03:28.152Z,100.00
2023-05-02T05:05:55.608Z,100.00
2023-05-02T05:08:24.390Z,100.00
2023-05-02T05:10:52.184Z,100.00
2023-05-02T05:13:20.363Z,100.00
2023-05-02T05:15:49.443Z,100.00
2023-05-02T05:18:18.768Z,100.00
2023-05-02T05:20:46.013Z,100.00
2023-05-02T05:23:16.656Z,100.00
2023-05-02T05:25:45.951Z,100.00
2023-05-02T05:28:15.995Z,100.00
2023-05-02T05:30:43.379Z,100.00
2023-05-02T05:33:15.620Z,100.00
2023-05-02T05:35:43.595Z,100.00
2023-05-02T05:38:11.039Z,100.00
2023-05-02T05:40:40.397Z,100.00
2023-05-02T05:43:10.080Z,100.00
2023-05-02T05:45:39.665Z,100.00
2023-05-02T05:48:07.835Z,100.00
2023-05-02T05:50:41.278Z,100.00
2023-05-02T05:53:08.808Z,100.00
2023-05-02T05:55:39.644Z,100.00
2023-05-02T05:58:09.486Z,100.00
2023-05-02T06:00:39.806Z,100.00
2023-05-02T06:03:09.590Z,100.00
2023-05-02T06:05:38.163Z,100.00
2023-05-02T06:08:05.821Z,100.00
2023-05-02T06:10:33.759Z,100.00
2023-05-02T06:13:01.399Z,100.00
2023-05-02T06:15:37.715Z,100.00
2023-05-02T06:18:06.452Z,100.00
2023-05-02T06:20:36.979Z,100.00
2023-05-02T06:23:04.530Z,100.00
2023-05-02T06:25:33.965Z,100.00
2023-05-02T06:28:01.291Z,100.00
2023-05-02T06:30:29.128Z,100.00
2023-05-02T06:32:56.549Z,100.00
2023-05-02T06:35:24.461Z,100.00
2023-05-02T06:37:52.001Z,100.00
2023-05-02T06:40:19.230Z,100.00
2023-05-02T06:42:47.011Z,100.00
2023-05-02T06:45:14.427Z,100.00
2023-05-02T06:47:42.225Z,100.00
2023-05-02T06:50:14.729Z,100.00
2023-05-02T06:52:43.246Z,100.00
2023-05-02T06:55:10.779Z,100.00
2023-05-02T06:57:38.525Z,100.00
2023-05-02T07:00:06.888Z,100.00
2023-05-02T07:02:34.781Z,100.00
2023-05-02T07:05:02.398Z,100.00
2023-05-02T07:07:31.846Z,100.00
2023-05-02T07:10:00.131Z,100.00
2023-05-02T07:12:28.713Z,100.00
2023-05-02T07:14:56.068Z,100.00
2023-05-02T07:17:25.433Z,100.00
2023-05-02T07:19:53.588Z,100.00
2023-05-02T07:22:21.789Z,100.00
2023-05-02T07:25:01.403Z,100.00
2023-05-02T07:27:28.910Z,100.00
2023-05-02T07:29:56.666Z,100.00
2023-05-02T07:32:26.205Z,100.00
2023-05-02T07:34:54.968Z,100.00
2023-05-02T07:37:23.080Z,100.00
2023-05-02T07:39:50.414Z,100.00
2023-05-02T07:42:18.017Z,100.00
2023-05-02T07:44:45.569Z,100.00
2023-05-02T07:47:12.877Z,100.00
2023-05-02T07:49:40.312Z,100.00
2023-05-02T07:52:08.306Z,100.00
2023-05-02T07:54:35.787Z,100.00
2023-05-02T07:57:05.177Z,100.00
2023-05-02T07:59:32.230Z,100.00
2023-05-02T08:02:05.297Z,100.00
2023-05-02T08:04:33.661Z,100.00
2023-05-02T08:07:01.404Z,100.00
2023-05-02T08:09:29.601Z,100.00
2023-05-02T08:11:58.026Z,100.00
2023-05-02T08:14:25.158Z,100.00
2023-05-02T08:16:52.477Z,100.00
2023-05-02T08:19:19.754Z,100.00
2023-05-02T08:21:47.682Z,100.00
2023-05-02T08:24:15.603Z,100.00
2023-05-02T08:26:43.097Z,100.00
2023-05-02T08:29:11.817Z,100.00
2023-05-02T08:31:41.046Z,100.00
2023-05-02T08:34:08.581Z,100.00
2023-05-02T08:36:37.202Z,100.00
2023-05-02T08:39:04.626Z,100.00
2023-05-02T08:41:31.988Z,100.00
2023-05-02T08:44:01.104Z,100.00
2023-05-02T08:46:29.128Z,100.00
2023-05-02T08:48:59.187Z,100.00
2023-05-02T08:51:30.391Z,100.00
2023-05-02T08:53:58.902Z,100.00
2023-05-02T08:56:26.284Z,100.00
2023-05-02T08:58:53.691Z,100.00
2023-05-02T09:01:29.308Z,100.00
2023-05-02T09:03:59.383Z,100.00
2023-05-02T09:06:28.262Z,100.00
2023-05-02T09:09:00.534Z,100.00
2023-05-02T09:11:29.739Z,100.00
2023-05-02T09:13:58.955Z,100.00
2023-05-02T09:16:27.286Z,100.00
2023-05-02T09:18:58.967Z,100.00
2023-05-02T09:21:41.199Z,100.00
2023-05-02T09:24:22.501Z,100.00
2023-05-02T09:27:04.944Z,100.00
2023-05-02T09:29:38.714Z,100.00
2023-05-02T09:32:07.189Z,100.00
2023-05-02T09:34:35.031Z,100.00
2023-05-02T09:37:04.126Z,100.00
2023-05-02T09:39:31.502Z,100.00
2023-05-02T09:42:00.001Z,100.00
2023-05-02T09:44:38.001Z,100.00
2023-05-02T09:47:06.896Z,100.00
2023-05-02T09:49:45.865Z,100.00
2023-05-02T09:52:22.814Z,100.00
2023-05-02T09:54:53.375Z,100.00
2023-05-02T09:57:20.692Z,100.00
2023-05-02T09:59:58.704Z,100.00
2023-05-02T10:02:30.611Z,100.00
2023-05-02T10:04:59.321Z,100.00
2023-05-02T10:07:33.777Z,100.00
2023-05-02T10:10:03.583Z,100.00
2023-05-02T10:12:33.965Z,97.97
2023-05-02T10:15:05.567Z,100.00
2023-05-02T10:17:43.590Z,97.65
2023-05-02T10:20:20.015Z,97.29
2023-05-02T10:22:51.033Z,95.96
2023-05-02T10:25:19.548Z,100.00
2023-05-02T10:27:47.846Z,100.00
2023-05-02T10:30:16.728Z,100.00
2023-05-02T10:32:46.417Z,100.00
2023-05-02T10:35:16.185Z,99.90
2023-05-02T10:37:45.497Z,97.85
2023-05-02T10:40:13.608Z,96.83
2023-05-02T10:42:47.327Z,98.48
2023-05-02T10:45:35.199Z,97.16
2023-05-02T10:48:26.694Z,96.13
2023-05-02T10:51:01.354Z,87.97
2023-05-02T10:53:44.892Z,89.63
2023-05-02T10:56:21.964Z,92.84
2023-05-02T10:58:51.955Z,96.35
2023-05-02T11:01:37.537Z,98.11
2023-05-02T11:04:10.903Z,100.00
2023-05-02T11:07:00.616Z,96.24
2023-05-02T11:09:28.194Z,99.57
2023-05-02T11:11:57.499Z,94.62
2023-05-02T11:14:39.516Z,92.29
2023-05-02T11:17:09.941Z,89.46
2023-05-02T11:19:46.253Z,79.77
2023-05-02T11:22:27.146Z,82.32
2023-05-02T11:24:54.987Z,94.42
2023-05-02T11:27:31.244Z,76.69
2023-05-02T11:30:10.508Z,63.23
2023-05-02T11:32:48.555Z,68.76
2023-05-02T11:35:31.315Z,56.12
2023-05-02T11:38:05.011Z,57.83
2023-05-02T11:40:32.809Z,51.31
2023-05-02T11:43:08.832Z,46.05
2023-05-02T11:45:37.863Z,52.91
2023-05-02T11:48:07.005Z,50.23
2023-05-02T11:51:04.837Z,51.64
2023-05-02T11:53:33.665Z,52.07
2023-05-02T11:56:04.310Z,58.43
2023-05-02T11:58:34.001Z,46.91
2023-05-02T12:01:17.406Z,42.43
2023-05-02T12:03:45.477Z,42.87
2023-05-02T12:06:21.575Z,41.20
2023-05-02T12:08:49.652Z,43.12
2023-05-02T12:11:17.412Z,40.22
2023-05-02T12:13:50.612Z,39.74
2023-05-02T12:16:19.890Z,42.00
2023-05-02T12:18:48.567Z,39.63
2023-05-02T12:21:17.297Z,35.08
2023-05-02T12:23:51.189Z,38.37
2023-05-02T12:26:20.190Z,37.73
2023-05-02T12:28:54.802Z,41.20
2023-05-02T12:31:24.163Z,33.79
2023-05-02T12:33:57.364Z,35.39
2023-05-02T12:36:25.569Z,32.95
2023-05-02T12:38:57.654Z,33.55
2023-05-02T12:41:43.600Z,35.16
2023-05-02T12:44:10.917Z,35.61
2023-05-02T12:46:38.825Z,32.34
2023-05-02T12:49:09.526Z,31.63
2023-05-02T12:51:41.224Z,29.93
2023-05-02T12:54:08.868Z,32.18
2023-05-02T12:56:40.984Z,32.90
2023-05-02T12:59:09.457Z,31.73
2023-05-02T13:01:38.886Z,30.86
2023-05-02T13:04:06.551Z,29.62
2023-05-02T13:06:37.586Z,28.34
2023-05-02T13:09:05.460Z,29.01
2023-05-02T13:11:32.876Z,30.31
2023-05-02T13:14:06.016Z,26.66
2023-05-02T13:16:36.644Z,25.17
2023-05-02T13:19:04.190Z,25.14
2023-05-02T13:21:32.602Z,25.43
2023-05-02T13:24:00.007Z,24.77
2023-05-02T13:26:27.206Z,23.99
2023-05-02T13:28:54.647Z,25.53
2023-05-02T13:31:22.472Z,24.32
2023-05-02T13:33:50.088Z,25.04
2023-05-02T13:36:17.484Z,26.72
2023-05-02T13:38:44.939Z,25.92
2023-05-02T13:41:12.465Z,25.71
2023-05-02T13:43:40.724Z,25.19
2023-05-02T13:46:08.051Z,23.66
2023-05-02T13:48:37.341Z,23.89
2023-05-02T13:51:04.992Z,22.75
2023-05-02T13:53:32.194Z,23.13
2023-05-02T13:55:59.506Z,24.53
2023-05-02T13:58:26.709Z,23.30
2023-05-02T14:00:53.924Z,22.83
2023-05-02T14:03:21.177Z,21.82
2023-05-02T14:05:48.313Z,22.46
2023-05-02T14:08:18.441Z,22.13
2023-05-02T14:10:46.207Z,21.58
2023-05-02T14:13:13.436Z,21.06
2023-05-02T14:15:40.746Z,20.71
2023-05-02T14:18:07.998Z,20.34
2023-05-02T14:20:35.613Z,20.67
2023-05-02T14:23:04.156Z,20.72
2023-05-02T14:25:32.673Z,19.73
2023-05-02T14:28:00.533Z,21.31
2023-05-02T14:30:27.903Z,19.94
2023-05-02T14:32:56.081Z,20.23
2023-05-02T14:35:23.894Z,20.45
2023-05-02T14:37:51.165Z,21.81
2023-05-02T14:40:18.951Z,21.27
2023-05-02T14:42:46.255Z,20.80
2023-05-02T14:45:13.493Z,20.96
2023-05-02T14:47:40.989Z,19.83
2023-05-02T14:50:08.995Z,20.45
2023-05-02T14:52:36.403Z,20.66
2023-05-02T14:55:04.345Z,19.72
2023-05-02T14:57:31.465Z,19.51
2023-05-02T14:59:59.036Z,20.10
2023-05-02T15:02:26.935Z,20.21
2023-05-02T15:04:54.151Z,20.12
2023-05-02T15:07:21.736Z,19.58
2023-05-02T15:10:13.733Z,19.80
2023-05-02T15:12:41.157Z,20.03
2023-05-02T15:15:09.636Z,18.95
2023-05-02T15:17:36.711Z,19.88
2023-05-02T15:20:04.850Z,20.02
2023-05-02T15:22:32.249Z,22.61
2023-05-02T15:24:59.441Z,24.71
2023-05-02T15:27:27.002Z,27.61
2023-05-02T15:29:54.208Z,27.85
2023-05-02T15:32:22.146Z,29.17
2023-05-02T15:34:50.048Z,31.41
2023-05-02T15:37:17.322Z,32.74
2023-05-02T15:39:44.476Z,31.97
2023-05-02T15:42:12.062Z,30.88
2023-05-02T15:44:39.572Z,31.14
2023-05-02T15:47:06.753Z,29.31
2023-05-02T15:49:34.859Z,28.32
2023-05-02T15:52:03.566Z,30.04
2023-05-02T15:54:35.838Z,32.76
2023-05-02T15:57:03.532Z,29.28
2023-05-02T15:59:30.682Z,28.16
2023-05-02T16:01:57.894Z,27.40
2023-05-02T16:04:32.146Z,25.15
2023-05-02T16:06:59.350Z,24.43
2023-05-02T16:09:26.868Z,26.39
2023-05-02T16:11:54.326Z,27.73
2023-05-02T16:14:24.060Z,28.99
2023-05-02T16:16:51.502Z,30.56
2023-05-02T16:19:19.286Z,31.66
2023-05-02T16:21:47.422Z,32.54
2023-05-02T16:24:15.042Z,33.15
2023-05-02T16:26:42.175Z,34.31
2023-05-02T16:29:09.582Z,36.88
2023-05-02T16:31:36.815Z,36.16
2023-05-02T16:34:04.219Z,36.33
2023-05-02T16:36:31.718Z,41.32
2023-05-02T16:38:59.287Z,39.46
2023-05-02T16:41:26.467Z,38.68
2023-05-02T16:43:53.773Z,40.15
2023-05-02T16:46:21.032Z,42.62
2023-05-02T16:48:48.195Z,42.01
2023-05-02T16:51:15.471Z,44.38
2023-05-02T16:53:43.748Z,42.08
2023-05-02T16:56:10.844Z,44.03
2023-05-02T16:58:38.033Z,45.95
2023-05-02T17:01:05.436Z,46.13
2023-05-02T17:03:32.640Z,44.53
2023-05-02T17:06:01.976Z,46.20
2023-05-02T17:08:29.700Z,45.09
2023-05-02T17:10:57.491Z,42.43
2023-05-02T17:13:24.989Z,46.23
2023-05-02T17:15:53.728Z,42.01
2023-05-02T17:18:21.962Z,43.38
2023-05-02T17:20:50.007Z,44.51
2023-05-02T17:23:17.703Z,42.87
2023-05-02T17:25:46.325Z,45.90
2023-05-02T17:28:13.626Z,41.10
2023-05-02T17:30:40.809Z,42.47
2023-05-02T17:33:08.169Z,41.37
2023-05-02T17:35:35.666Z,41.73
2023-05-02T17:38:03.270Z,43.25
2023-05-02T17:40:30.684Z,43.73
2023-05-02T17:42:59.295Z,42.55
2023-05-02T17:45:29.247Z,46.76
2023-05-02T17:47:57.668Z,45.12
2023-05-02T17:50:24.928Z,45.55
2023-05-02T17:52:52.874Z,47.19
2023-05-02T17:55:20.519Z,48.75
2023-05-02T17:57:48.505Z,46.14
2023-05-02T18:00:16.550Z,46.25
2023-05-02T18:02:44.132Z,47.82
2023-05-02T18:05:12.467Z,47.55
2023-05-02T18:07:39.707Z,47.15
2023-05-02T18:10:08.307Z,48.78
2023-05-02T18:12:36.297Z,48.66
2023-05-02T18:15:06.022Z,48.99
2023-05-02T18:17:34.105Z,50.85
2023-05-02T18:20:04.275Z,53.46
2023-05-02T18:22:33.764Z,57.92
2023-05-02T18:25:02.093Z,58.10
2023-05-02T18:27:30.232Z,57.74
2023-05-02T18:29:58.022Z,63.00
2023-05-02T18:32:25.990Z,66.56
2023-05-02T18:34:53.923Z,69.46
2023-05-02T18:37:22.864Z,73.43
2023-05-02T18:39:50.433Z,75.57
2023-05-02T18:42:18.194Z,79.52
2023-05-02T18:44:45.621Z,81.00
2023-05-02T18:47:13.771Z,85.76
2023-05-02T18:49:41.550Z,86.82
2023-05-02T18:52:08.798Z,90.84
2023-05-02T18:54:36.624Z,93.11
2023-05-02T18:57:04.049Z,94.30
2023-05-02T18:59:31.445Z,95.34
2023-05-02T19:02:04.636Z,96.98
2023-05-02T19:04:32.397Z,98.57
2023-05-02T19:06:59.772Z,99.20
2023-05-02T19:09:28.832Z,100.00
2023-05-02T19:11:55.978Z,99.39
2023-05-02T19:14:23.899Z,100.00
2023-05-02T19:16:51.312Z,99.62
2023-05-02T19:19:18.690Z,100.00
2023-05-02T19:21:48.119Z,100.00
2023-05-02T19:24:16.773Z,100.00
2023-05-02T19:26:44.516Z,98.55
2023-05-02T19:29:11.861Z,100.00
2023-05-02T19:31:40.501Z,97.32
2023-05-02T19:34:07.704Z,99.53
2023-05-02T19:36:35.543Z,100.00
2023-05-02T19:39:04.141Z,99.89
2023-05-02T19:41:31.383Z,95.19
2023-05-02T19:44:00.020Z,100.00
2023-05-02T19:46:27.413Z,100.00
2023-05-02T19:48:54.786Z,100.00
2023-05-02T19:51:30.937Z,100.00
2023-05-02T19:53:58.997Z,100.00
2023-05-02T19:56:27.352Z,100.00
2023-05-02T19:58:58.462Z,100.00
2023-05-02T20:01:33.186Z,100.00
2023-05-02T20:04:00.435Z,100.00
2023-05-02T20:06:28.513Z,100.00
2023-05-02T20:08:55.792Z,100.00
2023-05-02T20:11:23.082Z,100.00
2023-05-02T20:13:50.239Z,100.00
2023-05-02T20:16:17.446Z,100.00
2023-05-02T20:18:44.629Z,100.00
2023-05-02T20:21:11.795Z,100.00
2023-05-02T20:23:42.322Z,100.00
2023-05-02T20:26:10.310Z,100.00
2023-05-02T20:28:39.181Z,100.00
2023-05-02T20:31:07.094Z,100.00
2023-05-02T20:33:44.484Z,100.00
2023-05-02T20:36:14.814Z,100.00
2023-05-02T20:38:43.067Z,100.00
2023-05-02T20:41:14.935Z,100.00
2023-05-02T20:43:45.133Z,100.00
2023-05-02T20:46:16.514Z,100.00
2023-05-02T20:48:43.943Z,100.00
2023-05-02T20:51:11.352Z,100.00
2023-05-02T20:53:40.033Z,100.00
2023-05-02T20:56:09.023Z,100.00
2023-05-02T20:58:40.068Z,100.00
2023-05-02T21:01:07.780Z,100.00
2023-05-02T21:03:58.506Z,100.00
2023-05-02T21:06:26.685Z,100.00
2023-05-02T21:08:56.418Z,100.00
2023-05-02T21:11:24.260Z,100.00
2023-05-02T21:13:51.418Z,100.00
2023-05-02T21:16:22.898Z,100.00
2023-05-02T21:18:50.108Z,100.00
2023-05-02T21:21:17.316Z,100.00
2023-05-02T21:23:44.602Z,100.00
2023-05-02T21:26:11.751Z,100.00
2023-05-02T21:28:40.249Z,100.00
2023-05-02T21:31:08.394Z,100.00
2023-05-02T21:33:35.855Z,100.00
2023-05-02T21:36:03.603Z,100.00
2023-05-02T21:38:30.980Z,100.00
2023-05-02T21:41:04.208Z,100.00
2023-05-02T21:43:36.497Z,100.00
2023-05-02T21:46:03.632Z,100.00
2023-05-02T21:48:30.860Z,100.00
2023-05-02T21:50:58.016Z,100.00
2023-05-02T21:53:27.064Z,100.00
2023-05-02T21:55:54.831Z,100.00
2023-05-02T21:58:22.014Z,100.00
2023-05-02T22:00:54.621Z,100.00
2023-05-02T22:03:23.495Z,100.00
2023-05-02T22:05:51.397Z,100.00
2023-05-02T22:08:20.604Z,100.00
2023-05-02T22:10:48.580Z,100.00
2023-05-02T22:13:16.321Z,100.00
2023-05-02T22:15:47.535Z,100.00
2023-05-02T22:18:17.741Z,100.00
2023-05-02T22:20:46.440Z,100.00
2023-05-02T22:23:16.627Z,100.00
2023-05-02T22:25:46.307Z,100.00
2023-05-02T22:28:13.854Z,100.00
2023-05-02T22:30:43.025Z,100.00
2023-05-02T22:33:10.351Z,100.00
2023-05-02T22:35:37.957Z,100.00
2023-05-02T22:38:08.851Z,100.00
2023-05-02T22:40:36.026Z,100.00
2023-05-02T22:43:03.226Z,100.00
2023-05-02T22:45:30.460Z,100.00
2023-05-02T22:47:57.725Z,100.00
2023-05-02T22:50:26.229Z,100.00
2023-05-02T22:52:57.291Z,100.00
2023-05-02T22:55:24.971Z,100.00
2023-05-02T22:57:52.693Z,100.00
2023-05-02T23:00:19.938Z,100.00
2023-05-02T23:02:47.232Z,100.00
2023-05-02T23:05:14.515Z,100.00
2023-05-02T23:07:42.344Z,100.00
2023-05-02T23:10:10.319Z,100.00
2023-05-02T23:12:37.687Z,100.00
2023-05-02T23:15:06.353Z,100.00
2023-05-02T23:17:33.683Z,100.00
2023-05-02T23:20:00.933Z,100.00
2023-05-02T23:22:28.356Z,100.00
2023-05-02T23:24:55.741Z,100.00
2023-05-02T23:27:22.976Z,100.00
2023-05-02T23:29:50.150Z,100.00
2023-05-02T23:32:17.461Z,100.00
2023-05-02T23:34:44.953Z,100.00
2023-05-02T23:37:13.027Z,100.00
2023-05-02T23:39:40.904Z,100.00
2023-05-02T23:42:08.655Z,100.00
2023-05-02T23:44:36.041Z,100.00
2023-05-02T23:47:03.905Z,100.00
2023-05-02T23:49:31.364Z,100.00
2023-05-02T23:51:58.535Z,100.00
2023-05-02T23:54:26.133Z,100.00
2023-05-02T23:56:53.992Z,100.00
2023-05-02T23:59:21.274Z,100.00
